Time;durP1;ratioP1;P1;durP2;ratioP2;P2;SDS_P1;SDS_P2;PMS_P1;PMS_P2;Temp;Humidity;BMP_temperature;BMP_pressure;BME280_temperature;BME280_humidity;BME280_pressure;Samples;Min_cycle;Max_cycle;Signal;HPM_P1;HPM_P2
2021/11/16 00:02:29;;;;;;;38.78;26.58;;;;;;;7.40;100.00;102443.22;5234979;28;20107;-69
2021/11/16 00:05:01;;;;;;;39.28;27.73;;;;;;;7.36;100.00;102438.25;5236769;28;20075;-69
2021/11/16 00:07:32;;;;;;;37.97;27.35;;;;;;;7.34;100.00;102432.22;5236695;28;20518;-69
2021/11/16 00:10:05;;;;;;;38.55;27.52;;;;;;;7.45;100.00;102436.03;5235862;28;20091;-69
2021/11/16 00:12:37;;;;;;;40.88;26.95;;;;;;;7.44;100.00;102438.72;5236186;28;20032;-69
2021/11/16 00:15:09;;;;;;;41.00;27.20;;;;;;;7.39;100.00;102436.34;5236680;28;20025;-69
2021/11/16 00:17:40;;;;;;;41.40;27.13;;;;;;;7.41;100.00;102433.66;5236966;28;20359;-69
2021/11/16 00:20:13;;;;;;;38.30;27.00;;;;;;;7.38;100.00;102428.56;5236074;28;20031;-69
2021/11/16 00:22:45;;;;;;;38.28;27.58;;;;;;;7.39;100.00;102425.06;5235047;28;20079;-69
2021/11/16 00:25:20;;;;;;;34.20;25.75;;;;;;;7.34;100.00;102433.06;5235882;28;20106;-69
2021/11/16 00:27:51;;;;;;;38.95;27.88;;;;;;;7.28;100.00;102433.38;5235417;28;20036;-69
2021/11/16 00:30:22;;;;;;;40.85;27.63;;;;;;;7.29;100.00;102433.28;5233450;28;20454;-69
2021/11/16 00:32:54;;;;;;;41.45;28.27;;;;;;;7.34;100.00;102425.25;5235653;28;20029;-69
2021/11/16 00:35:25;;;;;;;38.92;27.70;;;;;;;7.33;100.00;102423.56;5236476;28;20048;-69
2021/11/16 00:37:57;;;;;;;45.13;28.45;;;;;;;7.35;100.00;102413.06;5235299;28;20331;-69
2021/11/16 00:40:29;;;;;;;38.85;26.65;;;;;;;7.33;100.00;102410.53;5235959;28;20036;-69
2021/11/16 00:43:00;;;;;;;40.30;28.13;;;;;;;7.36;100.00;102405.19;5237639;28;20064;-69
2021/11/16 00:45:32;;;;;;;41.88;27.65;;;;;;;7.38;100.00;102407.72;5235408;28;20033;-69
2021/11/16 00:48:05;;;;;;;45.25;29.13;;;;;;;7.37;100.00;102403.41;5236850;28;20036;-69
2021/11/16 00:50:40;;;;;;;41.38;29.35;;;;;;;7.37;100.00;102399.03;5233152;28;20245;-69
2021/11/16 00:53:11;;;;;;;40.80;28.10;;;;;;;7.33;100.00;102405.31;5236742;28;20104;-69
2021/11/16 00:55:43;;;;;;;40.95;27.85;;;;;;;7.28;100.00;102395.09;5237685;28;20175;-69
2021/11/16 00:58:15;;;;;;;38.67;27.20;;;;;;;7.29;100.00;102396.78;5233681;28;20049;-69
2021/11/16 01:00:46;;;;;;;39.53;27.58;;;;;;;7.38;100.00;102397.28;5235248;28;20703;-69
2021/11/16 01:03:19;;;;;;;39.85;28.08;;;;;;;7.36;100.00;102391.31;5236490;28;20029;-69
2021/11/16 01:05:51;;;;;;;36.70;26.08;;;;;;;7.39;100.00;102388.56;5235526;28;20120;-69
2021/11/16 01:08:23;;;;;;;39.80;27.90;;;;;;;7.34;100.00;102386.16;5238115;28;20485;-69
2021/11/16 01:10:56;;;;;;;38.42;27.75;;;;;;;7.37;100.00;102390.38;5235042;28;20121;-69
2021/11/16 01:13:28;;;;;;;36.45;26.30;;;;;;;7.37;100.00;102382.56;5236812;28;20482;-69
2021/11/16 01:16:00;;;;;;;37.85;26.85;;;;;;;7.35;100.00;102389.59;5241315;28;20021;-69
2021/11/16 01:18:32;;;;;;;39.88;27.75;;;;;;;7.37;100.00;102380.78;5239700;28;20026;-69
2021/11/16 01:21:03;;;;;;;36.50;26.85;;;;;;;7.36;100.00;102376.50;5237841;28;20036;-69
2021/11/16 01:23:35;;;;;;;42.92;27.45;;;;;;;7.37;100.00;102386.00;5240695;28;20090;-69
2021/11/16 01:26:06;;;;;;;37.88;26.73;;;;;;;7.38;100.00;102379.03;5238465;28;20276;-69
2021/11/16 01:28:38;;;;;;;38.00;27.45;;;;;;;7.37;100.00;102375.59;5222130;28;20087;-69
2021/11/16 01:31:09;;;;;;;39.78;26.65;;;;;;;7.35;100.00;102377.44;5240028;28;20026;-69
2021/11/16 01:33:49;;;;;;;37.85;26.45;;;;;;;7.37;100.00;102375.59;5240572;28;20030;-69
2021/11/16 01:36:21;;;;;;;40.30;28.05;;;;;;;7.36;100.00;102373.91;5238993;28;20029;-69
2021/11/16 01:38:56;;;;;;;36.65;25.98;;;;;;;7.43;100.00;102374.47;5239334;28;20025;-69
2021/11/16 01:41:30;;;;;;;40.03;26.92;;;;;;;7.38;100.00;102364.22;5240279;28;20021;-69
2021/11/16 01:44:02;;;;;;;39.92;29.42;;;;;;;7.33;100.00;102366.22;5241112;28;20112;-69
2021/11/16 01:46:33;;;;;;;36.30;25.73;;;;;;;7.39;100.00;102365.09;5238307;28;20039;-69
2021/11/16 01:49:05;;;;;;;40.55;28.52;;;;;;;7.38;100.00;102358.16;5239037;28;20120;-69
2021/11/16 01:51:38;;;;;;;40.08;28.02;;;;;;;7.30;100.00;102358.53;5239467;28;20028;-69
2021/11/16 01:54:09;;;;;;;38.72;27.13;;;;;;;7.35;100.00;102367.00;5231465;28;20049;-69
2021/11/16 01:56:43;;;;;;;37.97;28.00;;;;;;;7.35;100.00;102347.88;5238265;28;20033;-69
2021/11/16 01:59:18;;;;;;;40.17;28.83;;;;;;;7.37;100.00;102366.91;5238613;28;20043;-69
2021/11/16 02:01:50;;;;;;;39.05;27.52;;;;;;;7.34;100.00;102367.91;5239664;28;20052;-69
2021/11/16 02:04:22;;;;;;;37.10;27.13;;;;;;;7.32;100.00;102360.16;5239596;28;20434;-69
2021/11/16 02:06:54;;;;;;;41.25;29.30;;;;;;;7.29;100.00;102357.69;5239595;28;20152;-69
2021/11/16 02:09:25;;;;;;;41.50;28.88;;;;;;;7.34;100.00;102359.22;5240122;28;20040;-69
2021/11/16 02:11:56;;;;;;;41.92;30.02;;;;;;;7.31;100.00;102360.22;5239565;28;20420;-69
2021/11/16 02:14:28;;;;;;;42.00;28.88;;;;;;;7.38;100.00;102353.78;5239250;28;20444;-69
2021/11/16 02:16:59;;;;;;;39.63;29.00;;;;;;;7.34;100.00;102356.63;5239065;28;20021;-69
2021/11/16 02:19:31;;;;;;;37.95;28.77;;;;;;;7.37;100.00;102353.88;5237960;28;20029;-69
2021/11/16 02:22:03;;;;;;;42.55;29.60;;;;;;;7.30;100.00;102361.13;5239073;28;20021;-69
2021/11/16 02:24:35;;;;;;;40.67;29.38;;;;;;;7.34;100.00;102364.44;5239086;28;20305;-69
2021/11/16 02:27:07;;;;;;;43.13;30.95;;;;;;;7.32;100.00;102348.88;5238120;28;20094;-69
2021/11/16 02:29:38;;;;;;;44.92;29.48;;;;;;;7.26;100.00;102333.53;5238412;28;20037;-69
2021/11/16 02:32:09;;;;;;;39.30;27.58;;;;;;;7.38;100.00;102355.56;5237569;28;20548;-69
2021/11/16 02:34:41;;;;;;;42.55;28.13;;;;;;;7.37;100.00;102348.66;5240079;28;20505;-69
2021/11/16 02:37:12;;;;;;;41.75;30.98;;;;;;;7.37;100.00;102353.88;5237574;28;20025;-69
2021/11/16 02:39:43;;;;;;;39.38;29.45;;;;;;;7.42;100.00;102351.88;5239452;28;20040;-69
2021/11/16 02:42:19;;;;;;;41.03;30.75;;;;;;;7.39;100.00;102352.91;5237802;28;20053;-69
2021/11/16 02:44:51;;;;;;;41.75;29.42;;;;;;;7.41;100.00;102352.81;5239039;28;20025;-69
2021/11/16 02:47:22;;;;;;;43.80;30.05;;;;;;;7.43;100.00;102340.56;5237852;28;20076;-69
2021/11/16 02:49:56;;;;;;;42.88;30.08;;;;;;;7.41;100.00;102352.81;5238520;28;20021;-69
2021/11/16 02:52:28;;;;;;;40.88;30.85;;;;;;;7.38;100.00;102355.56;5229844;28;20080;-69
2021/11/16 02:54:59;;;;;;;42.13;29.98;;;;;;;7.39;100.00;102352.91;5235588;28;20115;-69
2021/11/16 02:57:31;;;;;;;43.70;31.75;;;;;;;7.37;100.00;102354.72;5237604;28;20037;-69
2021/11/16 03:00:10;;;;;;;41.08;29.38;;;;;;;7.53;100.00;102347.00;5238750;28;20106;-69
2021/11/16 03:02:44;;;;;;;43.58;31.35;;;;;;;7.38;100.00;102348.59;5235500;28;20022;-69
2021/11/16 03:05:15;;;;;;;42.58;30.10;;;;;;;7.36;100.00;102341.78;5236184;28;20075;-69
2021/11/16 03:07:49;;;;;;;43.83;30.48;;;;;;;7.34;100.00;102344.44;5236399;28;20409;-69
2021/11/16 03:10:25;;;;;;;42.22;30.80;;;;;;;7.47;100.00;102348.16;5237306;28;20021;-69
2021/11/16 03:12:58;;;;;;;45.88;31.92;;;;;;;7.33;100.00;102342.75;5236510;28;20171;-69
2021/11/16 03:15:29;;;;;;;41.42;30.85;;;;;;;7.29;100.00;102339.44;5237547;28;20121;-69
2021/11/16 03:18:01;;;;;;;44.33;30.30;;;;;;;7.32;100.00;102326.28;5237200;28;20021;-69
2021/11/16 03:20:32;;;;;;;38.78;28.60;;;;;;;7.38;100.00;102340.75;5235827;28;20031;-69
2021/11/16 03:23:14;;;;;;;43.10;30.95;;;;;;;7.35;100.00;102335.72;5236921;28;20078;-69
2021/11/16 03:25:53;;;;;;;43.03;30.20;;;;;;;7.30;100.00;102332.47;5237431;28;20029;-69
2021/11/16 03:28:28;;;;;;;40.97;29.48;;;;;;;7.32;100.00;102331.47;5237132;28;20463;-69
2021/11/16 03:31:09;;;;;;;41.88;30.20;;;;;;;7.35;100.00;102335.72;5238324;28;20035;-69
2021/11/16 03:33:41;;;;;;;44.28;30.55;;;;;;;7.22;100.00;102318.94;5237562;28;20044;-69
2021/11/16 03:36:12;;;;;;;42.97;31.00;;;;;;;7.29;100.00;102312.53;5236009;28;20419;-69
2021/11/16 03:38:44;;;;;;;42.08;30.20;;;;;;;7.29;100.00;102320.34;5237205;28;20037;-69
2021/11/16 03:41:17;;;;;;;43.28;30.92;;;;;;;7.33;100.00;102329.72;5237490;28;20028;-69
2021/11/16 03:43:51;;;;;;;46.50;30.80;;;;;;;7.31;100.00;102328.94;5238069;28;20028;-69
2021/11/16 03:46:23;;;;;;;42.58;29.52;;;;;;;7.30;100.00;102327.25;5237282;28;20182;-69
2021/11/16 03:48:54;;;;;;;42.45;30.55;;;;;;;7.30;100.00;102324.63;5236406;28;20416;-69
2021/11/16 03:51:26;;;;;;;43.50;31.13;;;;;;;7.35;100.00;102324.41;5238388;28;20087;-69
2021/11/16 03:53:57;;;;;;;44.80;31.65;;;;;;;7.28;100.00;102327.34;5236236;28;20044;-69
2021/11/16 03:56:29;;;;;;;42.35;31.02;;;;;;;7.32;100.00;102323.66;5237661;28;20033;-69
2021/11/16 03:59:00;;;;;;;43.35;31.65;;;;;;;7.28;100.00;102326.50;5237175;28;20315;-69
2021/11/16 04:01:31;;;;;;;43.20;31.55;;;;;;;7.29;100.00;102323.81;5236308;28;20032;-69
2021/11/16 04:04:05;;;;;;;47.45;31.42;;;;;;;7.35;100.00;102327.91;5237628;28;20044;-69
2021/11/16 04:06:36;;;;;;;44.63;31.15;;;;;;;7.24;100.00;102332.78;5237854;28;20025;-69
2021/11/16 04:09:08;;;;;;;46.53;31.45;;;;;;;7.21;100.00;102333.75;5234337;28;20070;-69
2021/11/16 04:11:41;;;;;;;44.95;31.90;;;;;;;7.25;100.00;102332.69;5237644;28;20569;-69
2021/11/16 04:14:12;;;;;;;44.95;31.60;;;;;;;7.23;100.00;102326.69;5235984;28;20123;-69
2021/11/16 04:16:43;;;;;;;44.70;30.60;;;;;;;7.25;100.00;102329.22;5237722;28;20150;-69
2021/11/16 04:19:15;;;;;;;44.15;31.55;;;;;;;7.22;100.00;102329.38;5237546;28;20108;-69
2021/11/16 04:21:46;;;;;;;46.75;31.83;;;;;;;7.26;100.00;102333.53;5236511;28;20091;-69
2021/11/16 04:24:17;;;;;;;44.28;31.15;;;;;;;7.23;100.00;102331.06;5235995;28;20055;-69
2021/11/16 04:26:49;;;;;;;42.50;29.67;;;;;;;7.24;100.00;102327.56;5236308;28;20120;-69
2021/11/16 04:29:20;;;;;;;48.30;31.90;;;;;;;7.20;100.00;102332.06;5236606;28;20032;-69
2021/11/16 04:31:52;;;;;;;44.15;30.65;;;;;;;7.22;100.00;102326.78;5236084;28;20036;-69
2021/11/16 04:34:23;;;;;;;48.20;32.00;;;;;;;7.17;100.00;102324.38;5236030;28;20304;-69
2021/11/16 04:36:54;;;;;;;42.97;31.05;;;;;;;7.17;100.00;102332.19;5237716;28;20020;-69
2021/11/16 04:39:26;;;;;;;47.83;33.20;;;;;;;7.17;100.00;102332.19;5236124;28;20028;-69
2021/11/16 04:41:57;;;;;;;48.20;31.58;;;;;;;7.16;100.00;102325.31;5236736;28;21095;-69
2021/11/16 04:44:28;;;;;;;44.97;31.55;;;;;;;7.12;100.00;102320.28;5235284;28;20122;-69
2021/11/16 04:47:01;;;;;;;47.88;32.67;;;;;;;7.15;100.00;102331.41;5233973;28;20029;-69
2021/11/16 04:49:38;;;;;;;47.22;32.63;;;;;;;7.19;100.00;102319.94;5238228;28;20391;-69
2021/11/16 04:55:24;;;;;;;47.92;32.28;;;;;;;7.18;100.00;102322.63;5239273;28;20040;-69
2021/11/16 05:03:34;;;;;;;46.35;31.58;;;;;;;7.13;100.00;102322.84;5240477;28;20037;-69
2021/11/16 05:06:06;;;;;;;45.53;32.03;;;;;;;7.13;100.00;102322.84;5239010;28;20479;-69
2021/11/16 05:08:43;;;;;;;50.85;34.53;;;;;;;7.10;100.00;102324.75;5240484;28;20434;-69
2021/11/16 05:11:16;;;;;;;45.20;31.88;;;;;;;7.09;100.00;102321.28;5224055;28;20503;-69
2021/11/16 05:13:48;;;;;;;47.65;31.42;;;;;;;7.17;100.00;102331.38;5238486;28;20484;-69
2021/11/16 05:16:22;;;;;;;49.17;32.72;;;;;;;7.24;100.00;102343.19;5239619;28;20052;-69
2021/11/16 05:18:54;;;;;;;46.33;32.58;;;;;;;7.10;100.00;102330.78;5240414;28;20475;-69
2021/11/16 05:21:25;;;;;;;46.13;32.78;;;;;;;7.15;100.00;102333.19;5240111;28;20036;-69
2021/11/16 05:23:58;;;;;;;47.22;33.47;;;;;;;7.19;100.00;102332.13;5240921;28;20033;-69
2021/11/16 05:26:30;;;;;;;;;;;;;;;7.72;100.00;102326.94;5242510;28;20029;-69
2021/11/16 05:29:01;;;;;;;48.95;32.45;;;;;;;7.17;100.00;102331.38;5240565;28;19920;-69
2021/11/16 05:31:33;;;;;;;52.97;33.92;;;;;;;7.15;100.00;102333.19;5239182;28;20089;-69
2021/11/16 05:34:04;;;;;;;48.67;34.05;;;;;;;7.13;100.00;102340.25;5240109;28;20064;-69
2021/11/16 05:36:35;;;;;;;46.67;32.67;;;;;;;7.15;100.00;102349.66;5237595;28;20033;-69
2021/11/16 05:39:07;;;;;;;51.53;33.95;;;;;;;7.07;100.00;102352.63;5240364;28;20518;-69
2021/11/16 05:41:39;;;;;;;49.47;33.35;;;;;;;7.10;100.00;102343.81;5240342;28;20029;-68
2021/11/16 05:44:10;;;;;;;48.17;33.63;;;;;;;7.11;100.00;102342.06;5238513;28;20025;-68
2021/11/16 05:46:42;;;;;;;49.17;32.95;;;;;;;7.11;100.00;102332.47;5239063;28;20039;-69
2021/11/16 05:49:13;;;;;;;51.03;34.05;;;;;;;7.09;100.00;102334.31;5237379;28;20029;-69
2021/11/16 05:51:45;;;;;;;52.38;34.60;;;;;;;7.17;100.00;102336.56;5236445;28;20046;-69
2021/11/16 05:54:18;;;;;;;46.47;32.15;;;;;;;7.07;100.00;102336.97;5238588;28;20503;-69
2021/11/16 05:56:49;;;;;;;51.95;33.75;;;;;;;7.05;100.00;102335.38;5237882;28;20386;-69
2021/11/16 05:59:23;;;;;;;49.33;33.05;;;;;;;7.07;100.00;102341.34;5237385;28;20036;-69
2021/11/16 06:01:54;;;;;;;49.80;33.88;;;;;;;7.06;100.00;102329.25;5237268;28;20475;-69
2021/11/16 06:04:26;;;;;;;49.78;33.88;;;;;;;7.07;100.00;102330.94;5238279;28;20039;-68
2021/11/16 06:06:58;;;;;;;49.63;34.33;;;;;;;7.05;100.00;102335.38;5237544;28;20082;-69
2021/11/16 06:09:31;;;;;;;50.60;33.72;;;;;;;7.02;100.00;102325.09;5238155;28;20438;-69
2021/11/16 06:12:03;;;;;;;48.08;32.05;;;;;;;7.06;100.00;102335.31;5239445;28;20033;-69
2021/11/16 06:14:35;;;;;;;47.55;32.47;;;;;;;7.00;100.00;102319.09;5238800;28;20033;-68
2021/11/16 06:17:06;;;;;;;49.65;32.00;;;;;;;6.97;100.00;102327.91;5238711;28;20037;-69
2021/11/16 06:19:38;;;;;;;50.53;34.13;;;;;;;7.01;100.00;102326.03;5239743;28;20026;-68
2021/11/16 06:22:10;;;;;;;50.58;33.17;;;;;;;6.96;100.00;102321.00;5237779;28;20021;-69
2021/11/16 06:24:42;;;;;;;51.50;34.42;;;;;;;6.93;100.00;102323.78;5239041;28;20052;-69
2021/11/16 06:27:14;;;;;;;51.33;33.20;;;;;;;6.97;100.00;102325.31;5222088;28;20028;-69
2021/11/16 06:29:45;;;;;;;50.08;34.50;;;;;;;6.94;100.00;102335.03;5239246;28;20041;-69
2021/11/16 06:32:17;;;;;;;53.42;35.10;;;;;;;6.94;100.00;102330.66;5237126;28;20029;-69
2021/11/16 06:34:48;;;;;;;50.22;33.97;;;;;;;6.92;100.00;102329.88;5236852;28;20040;-68
2021/11/16 06:37:19;;;;;;;50.58;33.33;;;;;;;6.94;100.00;102333.25;5238459;28;20055;-69
2021/11/16 06:39:51;;;;;;;52.35;34.55;;;;;;;6.91;100.00;102330.78;5237864;28;20075;-69
2021/11/16 06:42:22;;;;;;;49.38;33.10;;;;;;;6.95;100.00;102339.31;5236780;28;20742;-69
2021/11/16 06:44:53;;;;;;;50.55;32.83;;;;;;;6.98;100.00;102341.78;5237396;28;20625;-69
2021/11/16 06:47:25;;;;;;;53.53;35.60;;;;;;;6.93;100.00;102328.97;5237645;28;20372;-69
2021/11/16 06:49:56;;;;;;;54.20;35.28;;;;;;;6.96;100.00;102341.84;5240025;28;20188;-68
2021/11/16 06:52:30;;;;;;;49.15;32.50;;;;;;;6.98;100.00;102347.00;5237594;28;20037;-68
2021/11/16 06:55:08;;;;;;;54.40;34.42;;;;;;;7.05;100.00;102340.59;5238454;28;20387;-68
2021/11/16 06:57:42;;;;;;;50.47;33.72;;;;;;;6.93;100.00;102334.19;5238104;28;20032;-68
2021/11/16 07:00:14;;;;;;;52.67;33.88;;;;;;;6.97;100.00;102335.75;5238111;28;20033;-68
2021/11/16 07:02:55;;;;;;;51.35;34.58;;;;;;;7.12;100.00;102339.38;5238350;28;20063;-68
2021/11/16 07:05:28;;;;;;;55.72;35.83;;;;;;;7.01;100.00;102326.88;5226738;28;20030;-68
2021/11/16 07:08:00;;;;;;;56.50;36.97;;;;;;;7.05;100.00;102325.81;5237448;28;20099;-68
2021/11/16 07:10:32;;;;;;;53.90;36.07;;;;;;;7.05;100.00;102327.56;5235611;28;20025;-68
2021/11/16 07:13:07;;;;;;;54.80;36.28;;;;;;;7.06;100.00;102329.25;5236255;28;20048;-68
2021/11/16 07:15:38;;;;;;;53.33;34.80;;;;;;;7.01;100.00;102326.03;5238603;28;20091;-68
2021/11/16 07:18:10;;;;;;;57.42;36.45;;;;;;;7.02;100.00;102336.34;5238513;28;20029;-69
2021/11/16 07:20:43;;;;;;;57.40;34.70;;;;;;;7.05;100.00;102338.00;5237825;28;20033;-69
2021/11/16 07:23:15;;;;;;;54.33;34.40;;;;;;;7.11;100.00;102331.63;5238381;28;20021;-69
2021/11/16 07:25:46;;;;;;;52.13;34.92;;;;;;;7.06;100.00;102334.47;5232032;28;21137;-68
2021/11/16 07:28:19;;;;;;;52.85;35.58;;;;;;;7.04;100.00;102329.31;5236281;28;20675;-68
2021/11/16 07:30:50;;;;;;;50.97;34.83;;;;;;;7.05;100.00;102330.19;5218414;28;20374;-68
2021/11/16 07:33:23;;;;;;;53.92;34.70;;;;;;;7.07;100.00;102333.53;5228931;28;20410;-68
2021/11/16 07:35:54;;;;;;;53.90;34.22;;;;;;;7.03;100.00;102329.38;5236376;28;20036;-68
2021/11/16 07:38:26;;;;;;;53.38;33.90;;;;;;;7.12;100.00;102341.13;5236503;28;20032;-68
2021/11/16 07:40:58;;;;;;;54.00;34.08;;;;;;;7.10;100.00;102343.81;5235258;28;20028;-68
2021/11/16 07:43:29;;;;;;;52.60;34.67;;;;;;;7.03;100.00;102345.03;5236704;28;20098;-68
2021/11/16 07:46:01;;;;;;;52.80;33.15;;;;;;;7.07;100.00;102347.41;5236207;28;20037;-68
2021/11/16 07:48:32;;;;;;;53.30;34.00;;;;;;;7.07;100.00;102352.63;5235561;28;20808;-69
2021/11/16 07:51:06;;;;;;;52.10;33.78;;;;;;;7.12;100.00;102341.97;5236016;28;20032;-69
2021/11/16 07:53:40;;;;;;;55.00;34.47;;;;;;;7.09;100.00;102352.56;5236933;28;20053;-69
2021/11/16 07:56:16;;;;;;;54.78;34.92;;;;;;;7.01;100.00;102345.09;5236736;28;20116;-68
2021/11/16 07:58:55;;;;;;;52.25;33.72;;;;;;;7.06;100.00;102343.13;5235823;28;20064;-69
2021/11/16 08:01:42;;;;;;;53.15;35.25;;;;;;;7.11;100.00;102349.88;5235022;28;20939;-69
2021/11/16 08:14:57;;;;;;;53.33;35.47;;;;;;;7.13;100.00;102341.09;5236642;28;20048;-68
2021/11/16 08:17:31;;;;;;;54.55;35.15;;;;;;;7.16;100.00;102340.06;5235312;28;20033;-68
2021/11/16 08:20:06;;;;;;;56.85;35.33;;;;;;;7.18;100.00;102335.66;5234793;28;20024;-68
2021/11/16 08:22:38;;;;;;;56.53;34.50;;;;;;;7.12;100.00;102338.53;5236558;28;20116;-68
2021/11/16 08:25:10;;;;;;;55.65;36.30;;;;;;;7.10;100.00;102327.34;5231993;28;20415;-68
2021/11/16 08:27:43;;;;;;;57.05;35.20;;;;;;;7.13;100.00;102335.03;5233315;28;20567;-68
2021/11/16 08:30:20;;;;;;;55.72;35.55;;;;;;;7.23;100.00;102328.44;5235530;28;20471;-69
2021/11/16 08:32:57;;;;;;;55.40;35.13;;;;;;;7.11;100.00;102318.59;5234099;28;20631;-68
2021/11/16 08:35:29;;;;;;;53.67;34.40;;;;;;;7.11;100.00;102326.41;5236507;28;20155;-68
2021/11/16 08:38:05;;;;;;;56.47;35.30;;;;;;;7.13;100.00;102324.59;5237867;28;20106;-68
2021/11/16 08:40:38;;;;;;;57.33;36.67;;;;;;;7.17;100.00;102320.94;5235829;28;20025;-68
2021/11/16 08:43:14;;;;;;;52.83;34.13;;;;;;;7.23;100.00;102326.69;5233433;28;20486;-68
2021/11/16 08:45:49;;;;;;;55.95;33.53;;;;;;;7.21;100.00;102332.91;5237128;28;20029;-68
2021/11/16 08:48:23;;;;;;;52.08;33.92;;;;;;;7.22;100.00;102329.38;5236560;28;20086;-69
2021/11/16 08:51:01;;;;;;;54.40;34.70;;;;;;;7.22;100.00;102332.81;5234431;28;20032;-69
2021/11/16 08:53:35;;;;;;;57.83;34.90;;;;;;;7.23;100.00;102328.44;5235371;28;20064;-69
2021/11/16 08:56:13;;;;;;;57.92;35.25;;;;;;;7.31;100.00;102324.59;5235752;28;20021;-69
2021/11/16 08:58:44;;;;;;;58.50;33.97;;;;;;;7.21;100.00;102322.47;5235965;28;20036;-68
2021/11/16 09:01:15;;;;;;;53.13;33.40;;;;;;;7.16;100.00;102316.63;5235477;28;20013;-68
2021/11/16 09:03:47;;;;;;;55.95;34.38;;;;;;;7.13;100.00;102315.03;5234596;28;20116;-68
2021/11/16 09:06:21;;;;;;;58.08;34.08;;;;;;;7.16;100.00;102317.50;5236771;28;20051;-69
2021/11/16 09:09:09;;;;;;;52.47;33.40;;;;;;;7.30;100.00;102315.06;5235825;28;20087;-68
2021/11/16 09:11:56;;;;;;;51.60;33.97;;;;;;;7.37;100.00;102310.41;5217042;28;20045;-68
2021/11/16 09:14:29;;;;;;;57.08;34.45;;;;;;;7.17;100.00;102310.50;5235896;28;20022;-68
2021/11/16 09:17:11;;;;;;;51.35;31.80;;;;;;;7.34;100.00;102302.72;5235480;28;20033;-68
2021/11/16 09:19:42;;;;;;;54.13;33.10;;;;;;;7.11;100.00;102300.38;5233765;28;20548;-68
2021/11/16 09:22:16;;;;;;;53.47;32.58;;;;;;;7.18;100.00;102304.38;5235131;28;20029;-69
2021/11/16 09:24:50;;;;;;;48.83;30.17;;;;;;;7.13;100.00;102299.38;5235008;28;20029;-68
2021/11/16 09:27:37;;;;;;;49.75;31.25;;;;;;;7.29;100.00;102292.50;5236539;28;20025;-68
2021/11/16 09:30:10;;;;;;;48.50;30.77;;;;;;;7.11;100.00;102296.00;5217882;28;20074;-69
2021/11/16 09:33:05;;;;;;;48.67;29.17;;;;;;;7.35;100.00;102295.75;5234106;28;20074;-69
2021/11/16 09:35:59;;;;;;;50.45;30.40;;;;;;;7.30;100.00;102295.97;5236740;28;20412;-68
2021/11/16 09:38:43;;;;;;;52.78;30.45;;;;;;;7.25;100.00;102297.97;5239228;28;20044;-69
2021/11/16 09:41:19;;;;;;;;;;;;;;;7.75;100.00;102297.25;5240583;28;20036;-69
2021/11/16 09:43:59;;;;;;;50.03;31.92;;;;;;;7.28;100.00;102292.59;5239952;28;20411;-68
2021/11/16 09:46:32;;;;;;;52.22;31.33;;;;;;;7.23;100.00;102295.41;5238619;28;20029;-69
2021/11/16 09:49:04;;;;;;;55.58;33.65;;;;;;;7.26;100.00;102295.25;5238868;28;20033;-68
2021/11/16 09:51:35;;;;;;;51.53;31.02;;;;;;;7.21;100.00;102293.81;5239918;28;20036;-68
2021/11/16 09:54:10;;;;;;;49.42;31.25;;;;;;;7.21;100.00;102288.59;5237722;28;20045;-68
2021/11/16 09:56:41;;;;;;;53.33;31.25;;;;;;;7.23;100.00;102297.16;5240427;28;20502;-68
2021/11/16 09:59:24;;;;;;;52.80;31.60;;;;;;;7.43;100.00;102291.03;5239532;28;20181;-68
2021/11/16 10:01:56;;;;;;;48.40;30.73;;;;;;;7.24;100.00;102288.47;5239808;28;20033;-68
2021/11/16 10:04:34;;;;;;;51.65;31.52;;;;;;;7.23;100.00;102284.13;5241492;28;20577;-68
2021/11/16 10:07:05;;;;;;;46.50;29.20;;;;;;;7.25;100.00;102284.91;5221727;28;20056;-68
2021/11/16 10:09:41;;;;;;;48.22;30.02;;;;;;;7.26;100.00;102284.00;5240309;28;20601;-69
2021/11/16 10:12:13;;;;;;;48.45;31.15;;;;;;;7.24;100.00;102286.69;5240366;28;20072;-69
2021/11/16 10:14:45;;;;;;;51.08;30.23;;;;;;;7.25;100.00;102284.91;5240692;28;20131;-69
2021/11/16 10:17:18;;;;;;;54.78;31.80;;;;;;;7.21;100.00;102291.19;5241196;28;20105;-69
2021/11/16 10:19:50;;;;;;;55.83;31.02;;;;;;;7.22;100.00;102285.06;5241483;28;20079;-69
2021/11/16 10:22:22;;;;;;;56.00;32.08;;;;;;;7.20;100.00;102274.72;5238429;28;20021;-69
2021/11/16 10:25:08;;;;;;;55.05;31.40;;;;;;;7.43;100.00;102268.41;5238447;28;20044;-69
2021/11/16 10:27:41;;;;;;;52.95;31.05;;;;;;;7.28;100.00;102271.75;5237440;28;20084;-69
2021/11/16 10:30:27;;;;;;;52.45;29.63;;;;;;;7.36;100.00;102274.81;5237869;28;20435;-69
2021/11/16 10:33:18;;;;;;;52.45;30.88;;;;;;;7.46;100.00;102273.47;5238458;28;20302;-69
2021/11/16 10:36:09;;;;;;;47.00;28.98;;;;;;;7.22;100.00;102267.66;5240996;28;20075;-69
2021/11/16 10:38:46;;;;;;;47.03;28.13;;;;;;;7.38;100.00;102272.13;5237568;28;20021;-69
2021/11/16 10:41:21;;;;;;;47.15;30.27;;;;;;;7.26;100.00;102263.97;5238464;28;20060;-69
2021/11/16 10:43:56;;;;;;;50.28;31.65;;;;;;;7.28;100.00;102256.94;5237202;28;20040;-69
2021/11/16 10:46:31;;;;;;;46.08;27.58;;;;;;;7.37;100.00;102255.66;5211884;28;20529;-69
2021/11/16 10:49:11;;;;;;;48.80;29.77;;;;;;;7.40;100.00;102255.50;5238232;28;20049;-69
2021/11/16 10:51:45;;;;;;;54.60;30.17;;;;;;;7.36;100.00;102250.53;5237761;28;20025;-69
2021/11/16 10:54:16;;;;;;;51.17;30.80;;;;;;;7.28;100.00;102248.28;5220822;28;20571;-69
2021/11/16 10:56:57;;;;;;;51.30;30.27;;;;;;;7.45;100.00;102252.66;5219098;28;20035;-69
2021/11/16 10:59:31;;;;;;;51.17;30.52;;;;;;;7.27;100.00;102249.19;5219134;28;20131;-70
2021/11/16 11:02:02;;;;;;;51.70;30.25;;;;;;;7.26;100.00;102242.28;5220363;28;20047;-69
2021/11/16 11:04:42;;;;;;;50.03;30.23;;;;;;;7.32;100.00;102235.03;5215654;28;20041;-69
2021/11/16 11:07:13;;;;;;;53.92;31.50;;;;;;;7.32;100.00;102242.84;5216786;28;20107;-69
2021/11/16 11:09:57;;;;;;;49.03;30.27;;;;;;;7.44;100.00;102232.72;5220870;28;20314;-69
2021/11/16 11:12:29;;;;;;;51.33;30.45;;;;;;;7.28;100.00;102230.03;5220986;28;20057;-69
2021/11/16 11:15:01;;;;;;;48.03;30.48;;;;;;;7.30;100.00;102236.84;5214112;28;20110;-69
2021/11/16 11:17:36;;;;;;;49.65;30.77;;;;;;;7.34;100.00;102231.50;5216512;28;20025;-69
2021/11/16 11:20:10;;;;;;;52.25;30.77;;;;;;;7.28;100.00;102227.44;5216969;28;20021;-69
2021/11/16 11:22:44;;;;;;;53.53;30.73;;;;;;;7.34;100.00;102231.50;5216783;28;20396;-69
2021/11/16 11:28:08;;;;;;;48.72;29.48;;;;;;;7.21;100.00;102218.22;5217013;28;20030;-69
2021/11/16 11:30:40;;;;;;;48.00;29.33;;;;;;;7.25;100.00;102223.19;5213756;28;20048;-69
2021/11/16 11:33:14;;;;;;;50.55;32.08;;;;;;;7.29;100.00;102218.69;5216444;28;20026;-69
2021/11/16 11:35:45;;;;;;;50.28;31.58;;;;;;;7.21;100.00;102210.41;5219352;28;20107;-69
2021/11/16 11:38:17;;;;;;;53.72;31.77;;;;;;;7.21;100.00;102210.41;5217885;28;20503;-69
2021/11/16 11:40:54;;;;;;;52.42;32.03;;;;;;;7.35;100.00;102210.56;5218603;28;20080;-69
2021/11/16 11:43:27;;;;;;;51.92;31.33;;;;;;;7.27;100.00;102218.78;5217204;28;20029;-69
2021/11/16 11:45:58;;;;;;;52.70;31.80;;;;;;;7.28;100.00;102212.63;5216327;28;20032;-69
2021/11/16 11:48:30;;;;;;;51.20;29.92;;;;;;;7.24;100.00;102210.25;5217526;28;20025;-69
2021/11/16 11:51:11;;;;;;;56.78;31.67;;;;;;;7.35;100.00;102209.69;5215677;28;20193;-69
2021/11/16 11:53:42;;;;;;;54.45;32.22;;;;;;;7.22;100.00;102215.53;5227595;28;20057;-69
2021/11/16 11:56:15;;;;;;;50.15;31.10;;;;;;;7.28;100.00;102211.78;5237187;28;20025;-69
2021/11/16 11:58:47;;;;;;;50.33;32.08;;;;;;;7.30;100.00;102212.53;5234604;28;20115;-69
2021/11/16 12:01:18;;;;;;;53.97;32.10;;;;;;;7.34;100.00;102206.25;5236378;28;20029;-69